Observations at @ca for Latest


KACV 240853Z AUTO 04004KT 2SM BR OVC003 09/09 A3043 RMK AO2 SLP310 T00940089
 50001=
KACV 240910Z AUTO VRB03KT 4SM BR OVC003 09/09 A3044 RMK AO2 T00940089=
KAPC 240854Z AUTO 00000KT 10SM CLR 03/02 A3030 RMK AO2 SLP251 T00330022 58007=
KAVX 240851Z AUTO 05006KT 10SM CLR 12/M06 A3014 RMK AO2 SLP201 T01171061 58014=
KBAB 240858Z AUTO 01004KT 10SM CLR 04/02 A3026 RMK AO2 SLP250 T00410023 57012 $=
KBFL 240854Z AUTO 00000KT 6SM HZ CLR 06/03 A3029 RMK AO2 SLP257 T00610033 57013=
KBIH 240856Z AUTO 19005KT 10SM CLR 05/M02 A3030 RMK AO2 SLP246 T00501022 58001
 $=
KBLH 240852Z AUTO 00000KT 10SM CLR 05/00 A3019 RMK AO2 SLP221 T00500000 50001=
KBLU 240852Z AUTO 05005KT 10SM CLR 06/M07 A3031 RMK AO2 SLP233 T00611072 58006=
KBUR 240853Z 00000KT 10SM CLR 08/02 A3013 RMK AO2 SLP197 T00830022 58010=
KBYS 240855Z AUTO 28001KT 10SM CLR 03/M03 A3027 RMK AO2 SLP284 WND DATA ESTMD
 T00281032 50000=
KCCR 240853Z AUTO 15005KT 10SM CLR 07/03 A3030 RMK AO2 SLP246 T00670028 58007=
KCEC 240856Z AUTO 04005KT 3SM BR OVC003 09/09 A3046 RMK AO2 SLP314 T00940094
 50003=
KCEC 240907Z AUTO 03004KT 2SM BR OVC003 09/09 A3046 RMK AO2 T00940094=
KCIC 240855Z AUTO 35004KT 10SM CLR 04/03 A3030 RMK AO1=
KCIC 240915Z AUTO 36004KT 10SM CLR 05/04 A3029 RMK AO1=
KCMA 240855Z 07004KT 9SM CLR 08/02 A3012 RMK AO2 SLP207 T00830022 58014=
KCNO 240853Z AUTO 03005KT 6SM HZ CLR 07/03 A3016 RMK AO2 SLP210 T00720028 58012=
KCQT 240847Z AUTO 00000KT 10SM CLR 09/06 A3014 RMK AO2 SLP205 T00940056 58008=
KCRQ 240853Z AUTO 00000KT 10SM CLR 10/03 A3011 RMK AO2 SLP195 T01000033 58017=
KCZZ 240852Z AUTO 36005KT 03/M05 A3013 RMK AO1 SLP189 T00281050 58006=
KDAG 240850Z AUTO 25006KT 10SM CLR 04/M03 A3026 RMK AO2 SLP243 T00391033 50006
 $=
KEDW 240858Z AUTO 23004KT 10SM CLR 00/M01 A3024 RMK AO2 SLP246 T00031007 58004=
KEED 240856Z AUTO 22009KT 10SM CLR 08/M04 A3021 RMK AO2 SLP221 T00781044 50000
 $=
KFAT 240853Z 00000KT 4SM BR SCT007 07/05 A3031 RMK AO2 SLP262 T00670050 58009=
KFUL 240853Z AUTO 00000KT 10SM CLR 09/02 A3012 RMK AO2 SLP198 T00890022 58015=
KHHR 240853Z AUTO 00000KT 10SM CLR 11/05 A3014 RMK AO2 SLP205 T01110050 58010=
KHJO 240853Z AUTO 00000KT 1 1/4SM BR CLR 04/03 A3032 RMK AO2 SLP269 T00440033
 58009=
KHJO 240910Z AUTO 09003KT 3/4SM BR VV005 03/03 A3031 RMK AO2 T00330028=
KHWD 240854Z AUTO 04005KT 10SM CLR 09/03 A3029 RMK AO2 SLP265 T00940028 58009=
KIPL 240853Z AUTO VRB05KT 10SM CLR 04/M04 A3018 RMK AO2 SLP218 T00441039 58004=
KIZA 240855Z AUTO 00000KT 10SM CLR 05/03 A3015 RMK AO2=
KIZA 240915Z AUTO 00000KT 10SM CLR 05/03 A3015 RMK AO2=
KLAX 240853Z 05006KT 10SM FEW160 11/06 A3013 RMK AO2 SLP203 T01110056 58010=
KLGB 240853Z 31003KT 10SM CLR 10/07 A3013 RMK AO2 SLP201 T01000067 58014=
KLPC 240856Z AUTO 12003KT 10SM CLR 07/03 A3016 RMK AO2 SLP218 T00670028 56009=
KLVK 240853Z AUTO 00000KT 9SM CLR 05/02 A3029 RMK AO2 SLP258 T00500022 58008=
KMAE 240853Z AUTO 10003KT 6SM HZ CLR 07/03 A3031 RMK AO2 SLP264 T00670033 58009=
KMCE 240853Z AUTO 00000KT 1 3/4SM BR CLR 04/04 A3030 RMK AO2 SLP260 T00440044
 56007=
KMCE 240857Z AUTO 09003KT 3SM BR CLR 04/04 A3030 RMK AO2 T00440044=
KMER 240855Z AUTO 00000KT 3SM CLR 04/04 A3031 RMK AO1=
KMER 240915Z AUTO 00000KT 3SM CLR 04/04 A3030 RMK AO1=
KMER 240855Z AUTO 00000KT 3SM CLR 04/04 A3031 RMK AO1=
KMER 240915Z AUTO 00000KT 3SM CLR 04/04 A3030 RMK AO1=
KMHR 240645Z 30004KT 10SM FEW250 08/05 A3029=
KMHR 240730Z 21003KT 10SM SKC 07/06 A3030=
KMHS 240856Z AUTO 00000KT 10SM CLR 03/01 A3039 RMK AO2 SLP315 T00280006 50000=
KMMH 240855Z AUTO 00000KT 10SM CLR M03/M11 A3037 RMK AO2 T10301113=
KMMH 240915Z AUTO 00000KT 10SM CLR M03/M12 A3036 RMK AO2 T10331119=
KMOD 240853Z AUTO 00000KT 6SM BR CLR 05/04 A3030 RMK AO2 SLP261 T00500039 58003=
KMRY 240854Z AUTO 08009KT 10SM CLR 09/03 A3026 RMK AO2 SLP259 T00940033 58008=
KMYF 240853Z AUTO 00000KT 10SM CLR 11/03 A3012 RMK AO2 SLP195 T01110028 58021=
KMYV 240853Z AUTO 11003KT 10SM CLR 06/04 A3028 RMK AO2 SLP258 T00610039 58012=
KNFG 240855Z AUTO 00000KT 10SM CLR 03/02 A3013 RMK AO2 SLP202 T00280017 58014=
KNID 240856Z AUTO 30005KT 10SM CLR 01/M03 A3026 RMK AO2 SLP255 T00111033 53002=
KNJK 240856Z AUTO 26004KT 10SM CLR 07/M06 A3019 RMK AO2 SLP239 T00671056 58007
 $=
KNKX 240855Z 08008KT 10SM CLR 11/03 A3011 RMK AO2 SLP192 T01060033 58021 $=
KNLC 240856Z AUTO 25005KT 9SM CLR 03/01 A3031 RMK AO2 SLP266 T00330011 58009=
KNRS 240856Z 10009KT 5SM HZ CLR 09/05 A3011 RMK AO2 SLP196 T00890050 58025=
KNSI 240856Z AUTO 29005KT 10SM CLR 10/ A3012 RMK AO2 SLP195 T0100 56014 $=
KNTD 240857Z AUTO 00000KT 10SM CLR 08/02 A3013 RMK AO2 SLP204 T00830022 58013 $=
KNUC 240856Z AUTO 08005KT CLR 10/10 A3014 RMK AO2 SLP204 T01000100 56016 $=
KNUQ 240856Z AUTO 27003KT 10SM CLR 08/04 A3030 RMK AO2 SLP263 T00830039 58004=
KNXP 240856Z AUTO 27011KT 10SM CLR 08/M08 A3029 RMK AO2 SLP240 T00781083 55001=
KNZY 240852Z 29003KT 10SM CLR 11/06 A3011 RMK AO2 SLP196 T01110056 58020 PNO $=
KO54 240855Z AUTO 00000KT 3SM OVC003 04/04 A3039 RMK AO1=
KO54 240915Z AUTO 01004KT 5SM OVC003 04/04 A3038 RMK AO1=
KOAK 240853Z 00000KT 10SM CLR 08/04 A3030 RMK AO2 SLP259 T00780044 58008=
KONT 240853Z 04005KT 10SM CLR 08/M01 A3014 RMK AO2 SLP205 T00831006 58012=
KOVE 240853Z AUTO 30006KT 10SM CLR 06/03 A3029 RMK AO2 SLP259 T00610033 58012=
KOXR 240851Z AUTO 03008KT 10SM CLR 11/02 A3012 RMK AO2 SLP198 T01110017 58016 $=
KPMD 240853Z AUTO 27004KT 10SM CLR 03/M03 A3026 RMK AO2 SLP246 T00281028 58006=
KPRB 240853Z AUTO 07003KT 10SM CLR 05/03 A3026 RMK AO2 SLP247 T00500033 58008 $=
KPSP 240853Z AUTO 00000KT 10SM CLR 09/M01 A3019 RMK AO2 SLP223 T00891011 58013=
KPTV 240856Z AUTO 08004KT 6SM BR CLR 04/03 A3031 RMK AO2 SLP279 T00440033 58013=
KRAL 240853Z AUTO 05005KT 10SM CLR 08/00 A3015 RMK AO2 SLP200 T00780000 58012=
KRBL 240854Z AUTO 32007KT 10SM CLR 07/03 A3032 RMK AO2 SLP267 T00720028 58004=
KRIV 240858Z AUTO 00000KT 10SM CLR 02/00 A3015 RMK AO2 SLP210 T00190003 58010=
KRNM 240853Z AUTO 00000KT 10SM CLR 03/01 A3013 RMK AO2 SLP199 T00330006 58013=
KSAC 240853Z AUTO 22003KT 6SM BR CLR 05/04 A3029 RMK AO2 SLP256 T00500044 58009=
KSAN 240851Z 34003KT 10SM CLR 11/03 A3013 RMK AO2 SLP203 T01060033 58021=
KSBA 240853Z AUTO 00000KT 10SM CLR 06/04 A3012 RMK AO2 SLP200 T00560044 58013=
KSBD 240901Z AUTO 08003KT 10SM CLR 06/M01 A3016 RMK AO2 T00631006=
KSBD 240921Z AUTO 12003KT 10SM CLR 08/M01 A3015 RMK AO2 T00841015=
KSBP 240856Z AUTO 34007G16KT 10SM CLR 14/M02 A3018 RMK AO2 SLP219 T01391017
 56012=
KSCK 240855Z AUTO 24003KT 5SM BR CLR 06/03 A3029 RMK AO2 SLP258 T00560033 58004=
KSDB 240853Z AUTO 01005KT 10SM CLR 08/M09 A3025 RMK AO2 SLP219 T00781089 58006=
KSDM 240853Z AUTO 15006KT 6SM HZ CLR 09/04 A3011 RMK AO2 SLP194 T00890039 58020=
KSEE 240855Z AUTO 10SM CLR 06/04 A3012 RMK AO2=
KSEE 240915Z AUTO 000KT 10SM CLR 06/04 A3011 RMK AO2=
KSFO 240856Z 20003KT 10SM FEW200 08/03 A3029 RMK AO2 SLP256 T00830033 58006=
KSJC 240853Z AUTO 00000KT 10SM CLR 07/04 A3030 RMK AO2 SLP258 T00720039 58004=
KSLI 240858Z AUTO 00000KT 10SM CLR 07/04 A3012 RMK AO2 SLP203 T00690044 58016=
KSMF 240853Z 00000KT 10SM CLR 07/05 A3028 RMK AO2 SLP252 T00670050 58010=
KSMO 240851Z AUTO 03004KT 10SM CLR 12/05 A3014 RMK AO2 SLP204 T01220050 58011=
KSMX 240851Z AUTO 32012KT 10SM CLR 15/M02 A3016 RMK AO2 SLP213 T01501022 58018
 $=
KSNA 240853Z AUTO 00000KT 10SM CLR 09/03 A3012 RMK AO2 SLP198 T00940033 58019=
KSNS 240853Z AUTO 20003KT 10SM CLR 07/04 A3027 RMK AO2 SLP257 T00670044 58005=
KSQL 240855Z AUTO 00000KT 10SM CLR 08/04 A3029 RMK AO2=
KSQL 240900Z AUTO 00000KT 10SM CLR 08/04 A3029 RMK AO2=
KSQL 240915Z AUTO 00000KT 10SM CLR 08/04 A3029 RMK AO2=
KSTS 240853Z AUTO 00000KT 10SM CLR 05/04 A3028 RMK AO2 SLP247 T00500044 58012=
KSTS 240908Z AUTO 00000KT 1 3/4SM BR CLR 05/04 A3027 RMK AO2 T00500044=
KSTS 240913Z AUTO 00000KT 3/4SM BR VV002 05/04 A3028 RMK AO2 T00500044=
KSUU 240858Z AUTO 24004KT 10SM CLR 04/02 A3029 RMK AO2 SLP264 T00430023 58011=
KSVE 240855Z AUTO 28004KT 10SM CLR M01/M02 A3040 RMK AO2=
KSVE 240915Z AUTO 33004KT 10SM CLR M01/M02 A3039 RMK AO2=
KTRK 240855Z AUTO 00000KT 1/4SM FZFG OVC002 M05/M05 A3039 RMK AO2=
KTRK 240915Z AUTO 00000KT 1/4SM FZFG OVC002 M05/M06 A3039 RMK AO2=
KTRM 240852Z AUTO 06004KT 10SM CLR 05/M02 A3018 RMK AO2 SLP218 T00501017 55004
 TSNO=
KTVL 240853Z AUTO 17004KT 9SM CLR M04/M05 A3037 RMK AO2 SLP282 I1001 I3002
 T10391050 56006=
KUKI 240856Z AUTO 31003KT 9SM CLR 06/05 A3033 RMK AO2 SLP267 T00610050 58007=
KVBG 240858Z AUTO 05013KT 10SM CLR 15/M05 A3015 RMK AO2 SLP212 T01491049 57015
 $=
KVIS 240856Z AUTO 09004KT 1SM BR CLR 04/04 A3032 RMK AO2 SLP276 6//// T00440039
 56009 PNO $=
KVIS 240918Z AUTO VRB06KT 2SM BR CLR 04/03 A3031 RMK AO2 VIS 3/4V4 PNO $=
KVNY 240851Z AUTO 00000KT 10SM CLR 11/00 A3013 RMK AO2 SLP199 T01060000 58011=
KWJF 240856Z AUTO 30003KT 10SM CLR 00/M02 A3026 RMK AO2 SLP257 T00001022 58008=
KWVI 240853Z AUTO 00000KT 10SM CLR 06/04 A3027 RMK AO2 SLP249 T00610044 58007=